sensor_id;sensor_type;location;lat;lon;timestamp;temperature;humidity
20839;DHT22;10580;51.092;6.828;2022-10-16T00:01:08;13.80;99.90
20839;DHT22;10580;51.092;6.828;2022-10-16T00:03:36;13.80;99.90
20839;DHT22;10580;51.092;6.828;2022-10-16T00:06:02;13.80;99.90
20839;DHT22;10580;51.092;6.828;2022-10-16T00:08:28;13.70;99.90
20839;DHT22;10580;51.092;6.828;2022-10-16T00:11:09;13.70;99.90
20839;DHT22;10580;51.092;6.828;2022-10-16T00:13:36;13.70;99.90
20839;DHT22;10580;51.092;6.828;2022-10-16T00:16:03;13.70;99.90
20839;DHT22;10580;51.092;6.828;2022-10-16T00:18:29;13.70;99.90
20839;DHT22;10580;51.092;6.828;2022-10-16T00:21:00;13.70;99.90
20839;DHT22;10580;51.092;6.828;2022-10-16T00:23:26;13.70;99.90
20839;DHT22;10580;51.092;6.828;2022-10-16T00:25:56;13.70;99.90
20839;DHT22;10580;51.092;6.828;2022-10-16T00:28:22;13.70;99.90
20839;DHT22;10580;51.092;6.828;2022-10-16T00:30:48;13.60;99.90
20839;DHT22;10580;51.092;6.828;2022-10-16T00:33:13;13.60;99.90
20839;DHT22;10580;51.092;6.828;2022-10-16T00:35:39;13.60;99.90
20839;DHT22;10580;51.092;6.828;2022-10-16T00:38:04;13.60;99.90
20839;DHT22;10580;51.092;6.828;2022-10-16T00:40:30;13.50;99.90
20839;DHT22;10580;51.092;6.828;2022-10-16T00:42:57;13.50;99.90
20839;DHT22;10580;51.092;6.828;2022-10-16T00:45:22;13.50;99.90
20839;DHT22;10580;51.092;6.828;2022-10-16T00:47:49;13.50;99.90
20839;DHT22;10580;51.092;6.828;2022-10-16T00:50:33;13.40;99.90
20839;DHT22;10580;51.092;6.828;2022-10-16T00:53:00;13.40;99.90
20839;DHT22;10580;51.092;6.828;2022-10-16T00:55:27;13.50;99.90
20839;DHT22;10580;51.092;6.828;2022-10-16T00:57:56;13.40;99.90
20839;DHT22;10580;51.092;6.828;2022-10-16T01:00:25;13.40;99.90
20839;DHT22;10580;51.092;6.828;2022-10-16T01:02:56;13.40;99.90
20839;DHT22;10580;51.092;6.828;2022-10-16T01:05:23;13.40;99.90
20839;DHT22;10580;51.092;6.828;2022-10-16T01:08:09;13.40;99.90
20839;DHT22;10580;51.092;6.828;2022-10-16T01:10:38;13.40;99.90
20839;DHT22;10580;51.092;6.828;2022-10-16T01:13:18;13.50;99.90
20839;DHT22;10580;51.092;6.828;2022-10-16T01:16:13;13.50;99.90
20839;DHT22;10580;51.092;6.828;2022-10-16T01:18:49;13.40;99.90
20839;DHT22;10580;51.092;6.828;2022-10-16T01:21:28;13.40;99.90
20839;DHT22;10580;51.092;6.828;2022-10-16T01:27:25;13.40;99.90
20839;DHT22;10580;51.092;6.828;2022-10-16T01:30:02;13.40;99.90
20839;DHT22;10580;51.092;6.828;2022-10-16T01:37:48;13.40;99.90
20839;DHT22;10580;51.092;6.828;2022-10-16T01:40:17;13.50;99.90
20839;DHT22;10580;51.092;6.828;2022-10-16T01:43:06;13.50;99.90
20839;DHT22;10580;51.092;6.828;2022-10-16T01:45:34;13.60;99.90
20839;DHT22;10580;51.092;6.828;2022-10-16T01:48:02;13.60;99.90
20839;DHT22;10580;51.092;6.828;2022-10-16T01:50:32;13.70;99.90
20839;DHT22;10580;51.092;6.828;2022-10-16T01:53:02;13.70;99.90
20839;DHT22;10580;51.092;6.828;2022-10-16T01:55:35;13.70;99.90
20839;DHT22;10580;51.092;6.828;2022-10-16T01:58:02;13.70;99.90
20839;DHT22;10580;51.092;6.828;2022-10-16T02:00:29;13.70;99.90
20839;DHT22;10580;51.092;6.828;2022-10-16T02:02:57;13.70;99.90
20839;DHT22;10580;51.092;6.828;2022-10-16T02:05:31;13.70;99.90
20839;DHT22;10580;51.092;6.828;2022-10-16T02:07:57;13.80;99.90
20839;DHT22;10580;51.092;6.828;2022-10-16T02:10:24;13.80;99.90
20839;DHT22;10580;51.092;6.828;2022-10-16T02:12:59;13.90;99.90
20839;DHT22;10580;51.092;6.828;2022-10-16T02:15:25;13.90;99.90
20839;DHT22;10580;51.092;6.828;2022-10-16T02:17:51;13.90;99.90
20839;DHT22;10580;51.092;6.828;2022-10-16T02:20:17;13.90;99.90
20839;DHT22;10580;51.092;6.828;2022-10-16T02:22:45;13.90;99.90
20839;DHT22;10580;51.092;6.828;2022-10-16T02:25:19;13.90;99.90
20839;DHT22;10580;51.092;6.828;2022-10-16T02:28:15;13.90;99.90
20839;DHT22;10580;51.092;6.828;2022-10-16T02:30:47;13.90;99.90
20839;DHT22;10580;51.092;6.828;2022-10-16T02:33:15;14.00;99.90
20839;DHT22;10580;51.092;6.828;2022-10-16T02:35:43;14.00;99.90
20839;DHT22;10580;51.092;6.828;2022-10-16T02:38:09;14.00;99.90
20839;DHT22;10580;51.092;6.828;2022-10-16T02:40:36;14.00;99.90
20839;DHT22;10580;51.092;6.828;2022-10-16T02:43:03;13.90;99.90
20839;DHT22;10580;51.092;6.828;2022-10-16T02:45:29;14.00;99.90
20839;DHT22;10580;51.092;6.828;2022-10-16T02:47:54;14.00;99.90
20839;DHT22;10580;51.092;6.828;2022-10-16T02:50:20;14.00;99.90
20839;DHT22;10580;51.092;6.828;2022-10-16T02:52:46;14.00;99.90
20839;DHT22;10580;51.092;6.828;2022-10-16T02:55:12;14.00;99.90
20839;DHT22;10580;51.092;6.828;2022-10-16T02:57:37;14.00;99.90
20839;DHT22;10580;51.092;6.828;2022-10-16T03:00:06;14.00;99.90
20839;DHT22;10580;51.092;6.828;2022-10-16T03:02:32;13.90;99.90
20839;DHT22;10580;51.092;6.828;2022-10-16T03:04:57;13.90;99.90
20839;DHT22;10580;51.092;6.828;2022-10-16T03:07:23;13.90;99.90
20839;DHT22;10580;51.092;6.828;2022-10-16T03:09:48;13.90;99.90
20839;DHT22;10580;51.092;6.828;2022-10-16T03:12:14;13.90;99.90
20839;DHT22;10580;51.092;6.828;2022-10-16T03:14:39;13.80;99.90
20839;DHT22;10580;51.092;6.828;2022-10-16T03:17:05;13.80;99.90
20839;DHT22;10580;51.092;6.828;2022-10-16T03:19:31;13.80;99.90
20839;DHT22;10580;51.092;6.828;2022-10-16T03:21:57;13.80;99.90
20839;DHT22;10580;51.092;6.828;2022-10-16T03:24:22;13.70;99.90
20839;DHT22;10580;51.092;6.828;2022-10-16T03:26:48;13.70;99.90
20839;DHT22;10580;51.092;6.828;2022-10-16T03:29:13;13.70;99.90
20839;DHT22;10580;51.092;6.828;2022-10-16T03:31:39;13.70;99.90
20839;DHT22;10580;51.092;6.828;2022-10-16T03:34:04;13.70;99.90
20839;DHT22;10580;51.092;6.828;2022-10-16T03:36:30;13.60;99.90
20839;DHT22;10580;51.092;6.828;2022-10-16T03:38:56;13.60;99.90
20839;DHT22;10580;51.092;6.828;2022-10-16T03:41:22;13.60;99.90
20839;DHT22;10580;51.092;6.828;2022-10-16T03:43:47;13.60;99.90
20839;DHT22;10580;51.092;6.828;2022-10-16T03:46:13;13.50;99.90
20839;DHT22;10580;51.092;6.828;2022-10-16T03:48:38;13.50;99.90
20839;DHT22;10580;51.092;6.828;2022-10-16T03:51:05;13.50;99.90
20839;DHT22;10580;51.092;6.828;2022-10-16T03:53:31;13.40;99.90
20839;DHT22;10580;51.092;6.828;2022-10-16T03:55:56;13.40;99.90
20839;DHT22;10580;51.092;6.828;2022-10-16T03:58:22;13.40;99.90
20839;DHT22;10580;51.092;6.828;2022-10-16T04:00:48;13.40;99.90
20839;DHT22;10580;51.092;6.828;2022-10-16T04:03:13;13.50;99.90
20839;DHT22;10580;51.092;6.828;2022-10-16T04:05:39;13.50;99.90
20839;DHT22;10580;51.092;6.828;2022-10-16T04:08:05;13.50;99.90
20839;DHT22;10580;51.092;6.828;2022-10-16T04:10:31;13.50;99.90
20839;DHT22;10580;51.092;6.828;2022-10-16T04:12:56;13.50;99.90
20839;DHT22;10580;51.092;6.828;2022-10-16T04:15:23;13.40;99.90
20839;DHT22;10580;51.092;6.828;2022-10-16T04:17:49;13.50;99.90
20839;DHT22;10580;51.092;6.828;2022-10-16T04:20:14;13.50;99.90
20839;DHT22;10580;51.092;6.828;2022-10-16T04:22:40;13.60;99.90
20839;DHT22;10580;51.092;6.828;2022-10-16T04:25:06;13.60;99.90
20839;DHT22;10580;51.092;6.828;2022-10-16T04:27:31;13.50;99.90
20839;DHT22;10580;51.092;6.828;2022-10-16T04:30:00;13.60;99.90
20839;DHT22;10580;51.092;6.828;2022-10-16T04:32:27;13.50;99.90
20839;DHT22;10580;51.092;6.828;2022-10-16T04:34:52;13.50;99.90
20839;DHT22;10580;51.092;6.828;2022-10-16T04:37:18;13.50;99.90
20839;DHT22;10580;51.092;6.828;2022-10-16T04:39:44;13.40;99.90
20839;DHT22;10580;51.092;6.828;2022-10-16T04:42:10;13.40;99.90
20839;DHT22;10580;51.092;6.828;2022-10-16T04:44:36;13.40;99.90
20839;DHT22;10580;51.092;6.828;2022-10-16T04:47:01;13.30;99.90
20839;DHT22;10580;51.092;6.828;2022-10-16T04:49:27;13.40;99.90
20839;DHT22;10580;51.092;6.828;2022-10-16T04:51:52;13.30;99.90
20839;DHT22;10580;51.092;6.828;2022-10-16T04:54:18;13.40;99.90
20839;DHT22;10580;51.092;6.828;2022-10-16T04:56:44;13.40;99.90
20839;DHT22;10580;51.092;6.828;2022-10-16T04:59:14;13.30;99.90
20839;DHT22;10580;51.092;6.828;2022-10-16T05:01:39;13.30;99.90
20839;DHT22;10580;51.092;6.828;2022-10-16T05:04:05;13.40;99.90
20839;DHT22;10580;51.092;6.828;2022-10-16T05:06:31;13.30;99.90
20839;DHT22;10580;51.092;6.828;2022-10-16T05:08:56;13.30;99.90
20839;DHT22;10580;51.092;6.828;2022-10-16T05:11:22;13.20;99.90
20839;DHT22;10580;51.092;6.828;2022-10-16T05:13:47;13.20;99.90
20839;DHT22;10580;51.092;6.828;2022-10-16T05:16:13;13.20;99.90
20839;DHT22;10580;51.092;6.828;2022-10-16T05:18:39;13.10;99.90
20839;DHT22;10580;51.092;6.828;2022-10-16T05:21:04;13.20;99.90
20839;DHT22;10580;51.092;6.828;2022-10-16T05:23:31;13.20;99.90
20839;DHT22;10580;51.092;6.828;2022-10-16T05:25:58;13.20;99.90
20839;DHT22;10580;51.092;6.828;2022-10-16T05:28:28;13.20;99.90
20839;DHT22;10580;51.092;6.828;2022-10-16T05:30:55;13.30;99.90
20839;DHT22;10580;51.092;6.828;2022-10-16T05:33:24;13.30;99.90
20839;DHT22;10580;51.092;6.828;2022-10-16T05:35:50;13.20;99.90
20839;DHT22;10580;51.092;6.828;2022-10-16T05:38:18;13.30;99.90
20839;DHT22;10580;51.092;6.828;2022-10-16T05:40:51;13.30;99.90
20839;DHT22;10580;51.092;6.828;2022-10-16T05:43:17;13.30;99.90
20839;DHT22;10580;51.092;6.828;2022-10-16T05:45:43;13.50;99.90
20839;DHT22;10580;51.092;6.828;2022-10-16T05:48:09;13.50;99.90
20839;DHT22;10580;51.092;6.828;2022-10-16T05:50:34;13.50;99.90
20839;DHT22;10580;51.092;6.828;2022-10-16T05:53:00;13.60;99.90
20839;DHT22;10580;51.092;6.828;2022-10-16T05:55:25;13.70;99.90
20839;DHT22;10580;51.092;6.828;2022-10-16T05:57:54;13.70;99.90
20839;DHT22;10580;51.092;6.828;2022-10-16T06:00:20;13.60;99.90
20839;DHT22;10580;51.092;6.828;2022-10-16T06:02:45;13.60;99.90
20839;DHT22;10580;51.092;6.828;2022-10-16T06:05:11;13.60;99.90
20839;DHT22;10580;51.092;6.828;2022-10-16T06:07:36;13.60;99.90
20839;DHT22;10580;51.092;6.828;2022-10-16T06:10:03;13.60;99.90
20839;DHT22;10580;51.092;6.828;2022-10-16T06:12:29;13.70;99.90
20839;DHT22;10580;51.092;6.828;2022-10-16T06:14:55;13.70;99.90
20839;DHT22;10580;51.092;6.828;2022-10-16T06:17:20;13.70;99.90
20839;DHT22;10580;51.092;6.828;2022-10-16T06:19:46;13.70;99.90
20839;DHT22;10580;51.092;6.828;2022-10-16T06:22:11;13.80;99.90
20839;DHT22;10580;51.092;6.828;2022-10-16T06:24:37;13.80;99.90
20839;DHT22;10580;51.092;6.828;2022-10-16T06:27:04;13.80;99.90
20839;DHT22;10580;51.092;6.828;2022-10-16T06:29:29;13.90;99.90
20839;DHT22;10580;51.092;6.828;2022-10-16T06:31:55;13.90;99.90
20839;DHT22;10580;51.092;6.828;2022-10-16T06:34:20;13.90;99.90
20839;DHT22;10580;51.092;6.828;2022-10-16T06:36:46;13.90;99.90
20839;DHT22;10580;51.092;6.828;2022-10-16T06:39:11;14.00;99.90
20839;DHT22;10580;51.092;6.828;2022-10-16T06:41:37;14.00;99.90
20839;DHT22;10580;51.092;6.828;2022-10-16T06:44:06;14.00;99.90
20839;DHT22;10580;51.092;6.828;2022-10-16T06:46:35;14.10;99.90
20839;DHT22;10580;51.092;6.828;2022-10-16T06:49:01;14.10;99.90
20839;DHT22;10580;51.092;6.828;2022-10-16T06:51:26;14.20;99.90
20839;DHT22;10580;51.092;6.828;2022-10-16T06:53:54;14.20;99.90
20839;DHT22;10580;51.092;6.828;2022-10-16T06:56:26;14.30;99.90
20839;DHT22;10580;51.092;6.828;2022-10-16T06:58:55;14.40;99.90
20839;DHT22;10580;51.092;6.828;2022-10-16T07:01:23;14.50;99.90
20839;DHT22;10580;51.092;6.828;2022-10-16T07:03:49;14.60;99.90
20839;DHT22;10580;51.092;6.828;2022-10-16T07:06:17;14.70;99.90
20839;DHT22;10580;51.092;6.828;2022-10-16T07:08:44;14.70;99.90
20839;DHT22;10580;51.092;6.828;2022-10-16T07:11:12;14.70;99.90
20839;DHT22;10580;51.092;6.828;2022-10-16T07:13:40;14.90;99.90
20839;DHT22;10580;51.092;6.828;2022-10-16T07:16:14;14.90;99.90
20839;DHT22;10580;51.092;6.828;2022-10-16T07:18:40;14.80;99.90
20839;DHT22;10580;51.092;6.828;2022-10-16T07:21:10;14.80;99.90
20839;DHT22;10580;51.092;6.828;2022-10-16T07:23:36;14.80;99.90
20839;DHT22;10580;51.092;6.828;2022-10-16T07:26:03;14.90;99.90
20839;DHT22;10580;51.092;6.828;2022-10-16T07:28:28;14.90;99.90
20839;DHT22;10580;51.092;6.828;2022-10-16T07:30:54;15.00;99.90
20839;DHT22;10580;51.092;6.828;2022-10-16T07:33:20;14.90;99.90
20839;DHT22;10580;51.092;6.828;2022-10-16T07:35:54;14.90;99.90
20839;DHT22;10580;51.092;6.828;2022-10-16T07:38:20;14.80;99.90
20839;DHT22;10580;51.092;6.828;2022-10-16T07:40:46;14.80;99.90
20839;DHT22;10580;51.092;6.828;2022-10-16T07:43:13;14.80;99.90
20839;DHT22;10580;51.092;6.828;2022-10-16T07:45:47;14.70;99.90
20839;DHT22;10580;51.092;6.828;2022-10-16T07:48:14;14.70;99.90
20839;DHT22;10580;51.092;6.828;2022-10-16T07:50:40;14.60;99.90
20839;DHT22;10580;51.092;6.828;2022-10-16T07:56:30;14.60;99.90
20839;DHT22;10580;51.092;6.828;2022-10-16T07:58:56;14.70;99.90
20839;DHT22;10580;51.092;6.828;2022-10-16T08:01:22;14.70;99.90
20839;DHT22;10580;51.092;6.828;2022-10-16T08:03:50;14.80;99.90
20839;DHT22;10580;51.092;6.828;2022-10-16T08:06:16;14.90;99.90
20839;DHT22;10580;51.092;6.828;2022-10-16T08:12:14;15.20;99.90
20839;DHT22;10580;51.092;6.828;2022-10-16T08:14:40;15.40;99.90
20839;DHT22;10580;51.092;6.828;2022-10-16T08:17:06;15.60;99.90
20839;DHT22;10580;51.092;6.828;2022-10-16T08:19:31;15.70;99.90
20839;DHT22;10580;51.092;6.828;2022-10-16T08:21:59;15.80;99.90
20839;DHT22;10580;51.092;6.828;2022-10-16T08:24:25;15.80;99.90
20839;DHT22;10580;51.092;6.828;2022-10-16T08:26:53;16.00;99.90
20839;DHT22;10580;51.092;6.828;2022-10-16T08:29:19;16.10;99.90
20839;DHT22;10580;51.092;6.828;2022-10-16T08:31:45;16.50;99.90
20839;DHT22;10580;51.092;6.828;2022-10-16T08:34:10;17.40;99.90
20839;DHT22;10580;51.092;6.828;2022-10-16T08:36:36;18.10;99.90
20839;DHT22;10580;51.092;6.828;2022-10-16T08:39:02;19.10;99.90
20839;DHT22;10580;51.092;6.828;2022-10-16T08:46:50;19.20;79.20
20839;DHT22;10580;51.092;6.828;2022-10-16T08:49:18;18.70;95.70
20839;DHT22;10580;51.092;6.828;2022-10-16T08:51:44;18.30;99.90
20839;DHT22;10580;51.092;6.828;2022-10-16T08:57:25;17.60;99.90
20839;DHT22;10580;51.092;6.828;2022-10-16T08:59:56;17.60;99.90
20839;DHT22;10580;51.092;6.828;2022-10-16T09:02:35;17.60;99.90
20839;DHT22;10580;51.092;6.828;2022-10-16T09:10:29;17.60;99.90
20839;DHT22;10580;51.092;6.828;2022-10-16T09:18:40;19.20;1.00
20839;DHT22;10580;51.092;6.828;2022-10-16T09:21:19;19.80;1.00
20839;DHT22;10580;51.092;6.828;2022-10-16T09:23:47;19.50;1.00
20839;DHT22;10580;51.092;6.828;2022-10-16T09:26:14;19.80;1.00
20839;DHT22;10580;51.092;6.828;2022-10-16T09:28:41;19.50;1.00
20839;DHT22;10580;51.092;6.828;2022-10-16T09:31:19;19.80;1.00
20839;DHT22;10580;51.092;6.828;2022-10-16T09:34:05;19.30;1.00
20839;DHT22;10580;51.092;6.828;2022-10-16T09:36:40;19.00;1.00
20839;DHT22;10580;51.092;6.828;2022-10-16T09:39:14;18.60;1.00
20839;DHT22;10580;51.092;6.828;2022-10-16T09:41:45;18.60;9.50
20839;DHT22;10580;51.092;6.828;2022-10-16T09:44:33;18.50;1.00
20839;DHT22;10580;51.092;6.828;2022-10-16T09:47:23;18.60;1.00
20839;DHT22;10580;51.092;6.828;2022-10-16T09:53:43;18.90;1.00
20839;DHT22;10580;51.092;6.828;2022-10-16T09:56:11;19.00;1.00
20839;DHT22;10580;51.092;6.828;2022-10-16T09:58:43;19.20;1.00
20839;DHT22;10580;51.092;6.828;2022-10-16T10:01:16;19.30;1.00
20839;DHT22;10580;51.092;6.828;2022-10-16T10:03:47;19.70;1.00
20839;DHT22;10580;51.092;6.828;2022-10-16T10:06:40;20.10;1.00
20839;DHT22;10580;51.092;6.828;2022-10-16T10:09:34;20.60;1.00
20839;DHT22;10580;51.092;6.828;2022-10-16T10:12:04;20.90;1.00
20839;DHT22;10580;51.092;6.828;2022-10-16T10:14:39;21.50;99.90
20839;DHT22;10580;51.092;6.828;2022-10-16T10:17:12;21.70;1.00
20839;DHT22;10580;51.092;6.828;2022-10-16T10:19:58;21.40;1.00
20839;DHT22;10580;51.092;6.828;2022-10-16T10:22:38;21.60;99.90
20839;DHT22;10580;51.092;6.828;2022-10-16T10:31:12;21.10;99.90
20839;DHT22;10580;51.092;6.828;2022-10-16T10:41:57;19.70;1.00
20839;DHT22;10580;51.092;6.828;2022-10-16T10:51:05;19.60;1.00
20839;DHT22;10580;51.092;6.828;2022-10-16T10:54:02;19.40;1.00
20839;DHT22;10580;51.092;6.828;2022-10-16T11:00:16;19.50;1.00
20839;DHT22;10580;51.092;6.828;2022-10-16T11:05:54;19.20;1.00
20839;DHT22;10580;51.092;6.828;2022-10-16T11:08:29;19.20;1.00
20839;DHT22;10580;51.092;6.828;2022-10-16T11:10:58;19.10;1.00
20839;DHT22;10580;51.092;6.828;2022-10-16T11:16:27;19.20;1.00
20839;DHT22;10580;51.092;6.828;2022-10-16T11:19:03;19.20;1.00
20839;DHT22;10580;51.092;6.828;2022-10-16T11:21:36;19.30;1.00
20839;DHT22;10580;51.092;6.828;2022-10-16T11:24:19;19.20;1.00
20839;DHT22;10580;51.092;6.828;2022-10-16T11:26:47;19.30;1.00
20839;DHT22;10580;51.092;6.828;2022-10-16T11:29:22;19.30;1.00
20839;DHT22;10580;51.092;6.828;2022-10-16T11:31:59;19.30;1.00
20839;DHT22;10580;51.092;6.828;2022-10-16T11:34:41;19.40;1.00
20839;DHT22;10580;51.092;6.828;2022-10-16T11:37:14;19.50;1.00
20839;DHT22;10580;51.092;6.828;2022-10-16T11:39:45;19.70;1.00
20839;DHT22;10580;51.092;6.828;2022-10-16T11:42:21;19.90;1.00
20839;DHT22;10580;51.092;6.828;2022-10-16T11:45:03;19.90;1.00
20839;DHT22;10580;51.092;6.828;2022-10-16T11:55:50;22.60;1.00
20839;DHT22;10580;51.092;6.828;2022-10-16T11:58:37;23.00;1.00
20839;DHT22;10580;51.092;6.828;2022-10-16T12:26:33;20.20;1.00
20839;DHT22;10580;51.092;6.828;2022-10-16T12:36:29;20.00;1.00
20839;DHT22;10580;51.092;6.828;2022-10-16T12:39:24;20.40;1.00
20839;DHT22;10580;51.092;6.828;2022-10-16T12:42:05;20.60;1.00
20839;DHT22;10580;51.092;6.828;2022-10-16T12:44:56;20.60;1.00
20839;DHT22;10580;51.092;6.828;2022-10-16T13:03:02;20.80;1.00
20839;DHT22;10580;51.092;6.828;2022-10-16T13:21:32;22.80;1.00
20839;DHT22;10580;51.092;6.828;2022-10-16T13:26:59;23.70;25.20
20839;DHT22;10580;51.092;6.828;2022-10-16T13:29:31;24.30;1.00
20839;DHT22;10580;51.092;6.828;2022-10-16T13:31:58;24.50;99.90
20839;DHT22;10580;51.092;6.828;2022-10-16T13:34:26;24.00;1.00
20839;DHT22;10580;51.092;6.828;2022-10-16T13:36:53;24.10;99.90
20839;DHT22;10580;51.092;6.828;2022-10-16T13:39:44;24.10;99.90
20839;DHT22;10580;51.092;6.828;2022-10-16T13:42:12;24.10;99.90
20839;DHT22;10580;51.092;6.828;2022-10-16T13:44:44;24.00;14.80
20839;DHT22;10580;51.092;6.828;2022-10-16T13:47:31;23.80;1.00
20839;DHT22;10580;51.092;6.828;2022-10-16T13:50:25;23.60;99.90
20839;DHT22;10580;51.092;6.828;2022-10-16T13:55:58;23.20;99.90
20839;DHT22;10580;51.092;6.828;2022-10-16T13:58:25;22.80;1.00
20839;DHT22;10580;51.092;6.828;2022-10-16T14:01:00;22.40;1.00
20839;DHT22;10580;51.092;6.828;2022-10-16T14:03:27;22.20;99.90
20839;DHT22;10580;51.092;6.828;2022-10-16T14:05:55;21.70;1.00
20839;DHT22;10580;51.092;6.828;2022-10-16T14:08:23;21.40;99.90
20839;DHT22;10580;51.092;6.828;2022-10-16T14:10:51;21.30;21.80
20839;DHT22;10580;51.092;6.828;2022-10-16T14:13:28;21.20;99.90
20839;DHT22;10580;51.092;6.828;2022-10-16T14:15:55;20.80;99.90
20839;DHT22;10580;51.092;6.828;2022-10-16T14:18:25;20.90;99.90
20839;DHT22;10580;51.092;6.828;2022-10-16T14:20:52;20.80;1.00
20839;DHT22;10580;51.092;6.828;2022-10-16T14:23:30;20.80;99.90
20839;DHT22;10580;51.092;6.828;2022-10-16T14:26:13;20.80;99.90
20839;DHT22;10580;51.092;6.828;2022-10-16T14:28:40;20.80;99.90
20839;DHT22;10580;51.092;6.828;2022-10-16T14:31:26;20.80;1.00
20839;DHT22;10580;51.092;6.828;2022-10-16T14:33:52;20.70;99.90
20839;DHT22;10580;51.092;6.828;2022-10-16T14:36:18;20.50;99.90
20839;DHT22;10580;51.092;6.828;2022-10-16T14:38:59;20.50;1.00
20839;DHT22;10580;51.092;6.828;2022-10-16T14:41:26;20.40;99.90
20839;DHT22;10580;51.092;6.828;2022-10-16T14:43:54;20.20;99.90
20839;DHT22;10580;51.092;6.828;2022-10-16T14:46:28;20.10;99.90
20839;DHT22;10580;51.092;6.828;2022-10-16T14:51:35;20.00;99.90
20839;DHT22;10580;51.092;6.828;2022-10-16T14:54:00;20.00;99.90
20839;DHT22;10580;51.092;6.828;2022-10-16T14:56:31;19.90;99.90
20839;DHT22;10580;51.092;6.828;2022-10-16T14:58:59;19.90;1.00
20839;DHT22;10580;51.092;6.828;2022-10-16T15:01:25;19.80;1.00
20839;DHT22;10580;51.092;6.828;2022-10-16T15:03:50;19.80;99.90
20839;DHT22;10580;51.092;6.828;2022-10-16T15:06:18;19.80;99.90
20839;DHT22;10580;51.092;6.828;2022-10-16T15:08:43;19.70;1.00
20839;DHT22;10580;51.092;6.828;2022-10-16T15:11:17;19.70;1.00
20839;DHT22;10580;51.092;6.828;2022-10-16T15:13:46;19.60;1.00
20839;DHT22;10580;51.092;6.828;2022-10-16T15:16:19;19.60;1.00
20839;DHT22;10580;51.092;6.828;2022-10-16T15:18:45;19.50;1.00
20839;DHT22;10580;51.092;6.828;2022-10-16T15:21:31;19.40;1.00
20839;DHT22;10580;51.092;6.828;2022-10-16T15:23:58;19.40;1.00
20839;DHT22;10580;51.092;6.828;2022-10-16T15:29:40;19.30;1.00
20839;DHT22;10580;51.092;6.828;2022-10-16T15:32:06;19.30;1.00
20839;DHT22;10580;51.092;6.828;2022-10-16T15:34:31;19.30;1.00
20839;DHT22;10580;51.092;6.828;2022-10-16T15:36:57;19.20;1.00
20839;DHT22;10580;51.092;6.828;2022-10-16T15:39:23;19.10;1.00
20839;DHT22;10580;51.092;6.828;2022-10-16T15:41:48;19.10;1.00
20839;DHT22;10580;51.092;6.828;2022-10-16T15:44:16;19.10;1.00
20839;DHT22;10580;51.092;6.828;2022-10-16T15:46:42;19.00;1.00
20839;DHT22;10580;51.092;6.828;2022-10-16T15:49:09;18.90;1.00
20839;DHT22;10580;51.092;6.828;2022-10-16T15:51:38;18.80;1.00
20839;DHT22;10580;51.092;6.828;2022-10-16T15:54:04;18.80;1.00
20839;DHT22;10580;51.092;6.828;2022-10-16T15:56:29;18.70;1.00
20839;DHT22;10580;51.092;6.828;2022-10-16T15:58:58;18.70;1.00
20839;DHT22;10580;51.092;6.828;2022-10-16T16:01:24;18.60;1.00
20839;DHT22;10580;51.092;6.828;2022-10-16T16:03:53;18.60;1.00
20839;DHT22;10580;51.092;6.828;2022-10-16T16:06:18;18.50;1.00
20839;DHT22;10580;51.092;6.828;2022-10-16T16:08:44;18.50;1.00
20839;DHT22;10580;51.092;6.828;2022-10-16T16:11:12;18.50;1.00
20839;DHT22;10580;51.092;6.828;2022-10-16T16:13:38;18.40;1.00
20839;DHT22;10580;51.092;6.828;2022-10-16T16:16:09;18.40;1.10
20839;DHT22;10580;51.092;6.828;2022-10-16T16:18:35;18.30;10.10
20839;DHT22;10580;51.092;6.828;2022-10-16T16:21:01;18.20;24.70
20839;DHT22;10580;51.092;6.828;2022-10-16T16:23:27;18.20;36.70
20839;DHT22;10580;51.092;6.828;2022-10-16T16:26:03;18.10;40.80
20839;DHT22;10580;51.092;6.828;2022-10-16T16:28:29;18.10;47.70
20839;DHT22;10580;51.092;6.828;2022-10-16T16:30:55;18.00;61.20
20839;DHT22;10580;51.092;6.828;2022-10-16T16:33:21;18.00;67.70
20839;DHT22;10580;51.092;6.828;2022-10-16T16:35:46;18.00;88.10
20839;DHT22;10580;51.092;6.828;2022-10-16T16:38:12;18.00;94.70
20839;DHT22;10580;51.092;6.828;2022-10-16T16:40:37;17.90;99.90
20839;DHT22;10580;51.092;6.828;2022-10-16T16:43:03;17.90;99.90
20839;DHT22;10580;51.092;6.828;2022-10-16T16:45:29;17.80;99.90
20839;DHT22;10580;51.092;6.828;2022-10-16T16:47:55;17.80;99.90
20839;DHT22;10580;51.092;6.828;2022-10-16T16:50:20;17.80;99.90
20839;DHT22;10580;51.092;6.828;2022-10-16T16:52:46;17.70;99.90
20839;DHT22;10580;51.092;6.828;2022-10-16T16:55:11;17.70;99.90
20839;DHT22;10580;51.092;6.828;2022-10-16T16:57:37;17.70;99.90
20839;DHT22;10580;51.092;6.828;2022-10-16T17:00:04;17.70;99.90
20839;DHT22;10580;51.092;6.828;2022-10-16T17:02:29;17.60;99.90
20839;DHT22;10580;51.092;6.828;2022-10-16T17:04:55;17.70;99.90
20839;DHT22;10580;51.092;6.828;2022-10-16T17:07:22;17.60;99.90
20839;DHT22;10580;51.092;6.828;2022-10-16T17:09:50;17.60;99.90
20839;DHT22;10580;51.092;6.828;2022-10-16T17:12:15;17.60;99.90
20839;DHT22;10580;51.092;6.828;2022-10-16T17:14:41;17.60;99.90
20839;DHT22;10580;51.092;6.828;2022-10-16T17:17:07;17.60;99.90
20839;DHT22;10580;51.092;6.828;2022-10-16T17:19:32;17.60;99.90
20839;DHT22;10580;51.092;6.828;2022-10-16T17:21:58;17.50;99.90
20839;DHT22;10580;51.092;6.828;2022-10-16T17:24:23;17.50;99.90
20839;DHT22;10580;51.092;6.828;2022-10-16T17:26:49;17.50;99.90
20839;DHT22;10580;51.092;6.828;2022-10-16T17:29:16;17.60;99.90
20839;DHT22;10580;51.092;6.828;2022-10-16T17:31:42;17.60;99.90
20839;DHT22;10580;51.092;6.828;2022-10-16T17:34:09;17.60;99.90
20839;DHT22;10580;51.092;6.828;2022-10-16T17:36:37;17.60;99.90
20839;DHT22;10580;51.092;6.828;2022-10-16T17:39:06;17.60;99.90
20839;DHT22;10580;51.092;6.828;2022-10-16T17:41:33;17.60;99.90
20839;DHT22;10580;51.092;6.828;2022-10-16T17:43:58;17.60;99.90
20839;DHT22;10580;51.092;6.828;2022-10-16T17:46:24;17.60;99.90
20839;DHT22;10580;51.092;6.828;2022-10-16T17:48:53;17.70;99.90
20839;DHT22;10580;51.092;6.828;2022-10-16T17:51:21;17.70;99.90
20839;DHT22;10580;51.092;6.828;2022-10-16T17:53:52;17.60;99.90
20839;DHT22;10580;51.092;6.828;2022-10-16T17:56:19;17.60;99.90
20839;DHT22;10580;51.092;6.828;2022-10-16T17:58:48;17.60;99.90
20839;DHT22;10580;51.092;6.828;2022-10-16T18:01:19;17.50;99.90
20839;DHT22;10580;51.092;6.828;2022-10-16T18:03:54;17.50;99.90
20839;DHT22;10580;51.092;6.828;2022-10-16T18:06:20;17.50;99.90
20839;DHT22;10580;51.092;6.828;2022-10-16T18:08:46;17.50;99.90
20839;DHT22;10580;51.092;6.828;2022-10-16T18:11:12;17.60;99.90
20839;DHT22;10580;51.092;6.828;2022-10-16T18:13:37;17.60;99.90
20839;DHT22;10580;51.092;6.828;2022-10-16T18:16:06;17.60;99.90
20839;DHT22;10580;51.092;6.828;2022-10-16T18:18:34;17.50;99.90
20839;DHT22;10580;51.092;6.828;2022-10-16T18:21:01;17.60;99.90